Time;durP1;ratioP1;P1;durP2;ratioP2;P2;SDS_P1;SDS_P2;PMS_P1;PMS_P2;Temp;Humidity;BMP_temperature;BMP_pressure;BME280_temperature;BME280_humidity;BME280_pressure;Samples;Min_cycle;Max_cycle;Signal;HPM_P1;HPM_P2
2022/02/23 00:00:14;;;;;;;15.23;3.33;;;;;;;;;;5016218;28;20551;-45
2022/02/23 00:02:40;;;;;;;7.40;3.17;;;;;;;;;;5016020;28;20432;-45
2022/02/23 00:05:06;;;;;;;22.63;5.97;;;;;;;;;;5016042;28;20768;-45
2022/02/23 00:07:32;;;;;;;10.70;2.57;;;;;;;;;;5015773;28;20422;-45
2022/02/23 00:09:58;;;;;;;10.37;2.93;;;;;;;;;;5014974;28;20491;-45
2022/02/23 00:12:24;;;;;;;7.73;2.70;;;;;;;;;;5015261;28;20407;-45
2022/02/23 00:14:50;;;;;;;9.87;2.47;;;;;;;;;;5015642;28;20415;-44
2022/02/23 00:17:16;;;;;;;13.57;3.03;;;;;;;;;;5015158;28;20434;-45
2022/02/23 00:19:43;;;;;;;7.63;2.80;;;;;;;;;;5015184;28;20557;-45
2022/02/23 00:22:09;;;;;;;8.93;3.50;;;;;;;;;;5015339;28;20482;-45
2022/02/23 00:24:35;;;;;;;10.88;3.10;;;;;;;;;;5015531;28;20177;-47
2022/02/23 00:27:01;;;;;;;12.50;2.83;;;;;;;;;;5015562;28;20235;-45
2022/02/23 00:29:27;;;;;;;13.20;3.40;;;;;;;;;;5015011;28;20407;-45
2022/02/23 00:31:53;;;;;;;16.90;3.40;;;;;;;;;;5014527;28;20443;-44
2022/02/23 00:34:19;;;;;;;20.67;3.67;;;;;;;;;;5014049;28;20413;-45
2022/02/23 00:36:44;;;;;;;8.80;2.57;;;;;;;;;;5015177;28;20427;-44
2022/02/23 00:39:10;;;;;;;12.60;3.23;;;;;;;;;;5014902;28;20546;-45
2022/02/23 00:41:36;;;;;;;13.00;3.40;;;;;;;;;;5015143;28;20912;-45
2022/02/23 00:44:03;;;;;;;11.13;3.33;;;;;;;;;;5014695;28;20483;-45
2022/02/23 00:46:29;;;;;;;5.72;2.75;;;;;;;;;;5014363;28;20423;-45
2022/02/23 00:48:55;;;;;;;15.23;3.33;;;;;;;;;;5014136;28;20218;-45
2022/02/23 00:51:21;;;;;;;14.50;3.65;;;;;;;;;;5014793;28;20470;-45
2022/02/23 00:53:47;;;;;;;23.17;4.65;;;;;;;;;;5014689;28;20264;-45
2022/02/23 00:56:13;;;;;;;9.70;3.00;;;;;;;;;;5014429;28;20223;-45
2022/02/23 00:58:39;;;;;;;14.63;3.80;;;;;;;;;;5014201;28;20399;-45
2022/02/23 01:01:05;;;;;;;7.80;2.65;;;;;;;;;;5013376;28;20506;-43
2022/02/23 01:03:34;;;;;;;11.50;2.53;;;;;;;;;;5012103;28;20720;-44
2022/02/23 01:06:00;;;;;;;15.48;4.78;;;;;;;;;;5011966;28;20892;-43
2022/02/23 01:08:26;;;;;;;7.73;4.63;;;;;;;;;;5012275;28;20174;-43
2022/02/23 01:10:52;;;;;;;17.63;3.93;;;;;;;;;;5012251;28;20399;-43
2022/02/23 01:13:18;;;;;;;8.23;3.00;;;;;;;;;;5012073;28;20412;-44
2022/02/23 01:15:44;;;;;;;16.17;4.38;;;;;;;;;;5012103;28;20482;-43
2022/02/23 01:18:10;;;;;;;16.98;3.60;;;;;;;;;;5012284;28;20670;-44
2022/02/23 01:20:36;;;;;;;8.35;3.33;;;;;;;;;;5011541;28;20192;-44
2022/02/23 01:23:03;;;;;;;7.53;3.80;;;;;;;;;;5011733;28;20632;-44
2022/02/23 01:25:31;;;;;;;15.45;3.90;;;;;;;;;;5011696;28;20659;-44
2022/02/23 01:27:59;;;;;;;16.50;3.40;;;;;;;;;;5011807;28;20176;-44
2022/02/23 01:30:25;;;;;;;12.73;3.25;;;;;;;;;;5011758;28;20255;-44
2022/02/23 01:32:51;;;;;;;12.30;3.80;;;;;;;;;;5011546;28;20633;-43
2022/02/23 01:35:17;;;;;;;13.82;3.85;;;;;;;;;;5011471;28;20494;-44
2022/02/23 01:37:43;;;;;;;16.05;3.67;;;;;;;;;;5011349;28;20284;-43
2022/02/23 01:40:10;;;;;;;17.85;4.32;;;;;;;;;;5010978;28;20200;-43
2022/02/23 01:42:36;;;;;;;11.35;3.85;;;;;;;;;;5011111;28;20410;-44
2022/02/23 01:45:02;;;;;;;11.10;3.83;;;;;;;;;;5011417;28;20168;-43
2022/02/23 01:47:28;;;;;;;12.82;4.05;;;;;;;;;;5011279;28;20419;-44
2022/02/23 01:49:56;;;;;;;20.73;4.43;;;;;;;;;;5011059;28;20187;-43
2022/02/23 01:52:25;;;;;;;16.80;4.40;;;;;;;;;;5011249;28;20400;-43
2022/02/23 01:54:51;;;;;;;21.48;4.45;;;;;;;;;;5011370;28;20659;-43
2022/02/23 01:57:17;;;;;;;23.40;4.03;;;;;;;;;;5011011;28;20211;-43
2022/02/23 01:59:42;;;;;;;18.83;4.30;;;;;;;;;;5010909;28;20207;-43
2022/02/23 02:02:08;;;;;;;12.47;3.97;;;;;;;;;;5010580;28;20415;-43
2022/02/23 02:04:34;;;;;;;12.50;4.30;;;;;;;;;;5010515;28;20447;-43
2022/02/23 02:07:00;;;;;;;9.10;4.00;;;;;;;;;;5010697;28;20844;-43
2022/02/23 02:09:26;;;;;;;20.07;3.83;;;;;;;;;;5010406;28;20407;-45
2022/02/23 02:11:52;;;;;;;19.03;3.87;;;;;;;;;;5011132;28;20403;-43
2022/02/23 02:14:18;;;;;;;18.53;3.70;;;;;;;;;;5011035;28;20900;-43
2022/02/23 02:16:44;;;;;;;11.80;4.00;;;;;;;;;;5011020;28;20884;-43
2022/02/23 02:19:10;;;;;;;15.00;4.40;;;;;;;;;;5010619;28;20466;-43
2022/02/23 02:21:56;;;;;;;22.45;4.10;;;;;;;;;;5011082;28;20403;-44
2022/02/23 02:24:23;;;;;;;10.98;3.70;;;;;;;;;;5011099;28;20165;-43
2022/02/23 02:26:49;;;;;;;8.10;3.83;;;;;;;;;;5011309;28;20191;-43
2022/02/23 02:29:15;;;;;;;19.33;3.78;;;;;;;;;;5010777;28;20171;-43
2022/02/23 02:31:41;;;;;;;25.30;4.28;;;;;;;;;;5010780;28;20194;-43
2022/02/23 02:34:07;;;;;;;10.30;3.30;;;;;;;;;;5010834;28;20660;-43
2022/02/23 02:36:33;;;;;;;15.05;3.53;;;;;;;;;;5010843;28;20423;-44
2022/02/23 02:38:59;;;;;;;14.05;3.78;;;;;;;;;;5010633;28;20712;-43
2022/02/23 02:41:25;;;;;;;15.43;4.13;;;;;;;;;;5010997;28;20184;-44
2022/02/23 02:43:51;;;;;;;12.67;3.53;;;;;;;;;;5010844;28;20534;-45
2022/02/23 02:46:17;;;;;;;8.50;3.10;;;;;;;;;;5010719;28;20601;-43
2022/02/23 02:48:43;;;;;;;9.15;4.05;;;;;;;;;;5010905;28;20403;-43
2022/02/23 02:51:09;;;;;;;15.75;3.55;;;;;;;;;;5010896;28;20203;-43
2022/02/23 02:53:35;;;;;;;11.57;3.10;;;;;;;;;;5014213;28;20248;-43
2022/02/23 02:56:01;;;;;;;16.20;6.00;;;;;;;;;;5014406;28;20461;-43
2022/02/23 02:58:29;;;;;;;9.53;3.77;;;;;;;;;;5014501;28;20412;-44
2022/02/23 03:00:54;;;;;;;10.57;3.17;;;;;;;;;;5014030;28;20970;-43
2022/02/23 03:03:20;;;;;;;12.07;4.23;;;;;;;;;;5014306;28;20183;-43
2022/02/23 03:05:47;;;;;;;19.70;3.50;;;;;;;;;;5014498;28;20494;-43
2022/02/23 03:08:14;;;;;;;12.35;2.90;;;;;;;;;;5014252;28;20995;-45
2022/02/23 03:10:40;;;;;;;23.35;3.88;;;;;;;;;;5013984;28;20601;-43
2022/02/23 03:13:07;;;;;;;12.85;3.30;;;;;;;;;;5014110;28;20219;-44
2022/02/23 03:15:33;;;;;;;11.70;2.97;;;;;;;;;;5014011;28;20169;-43
2022/02/23 03:17:59;;;;;;;9.45;3.28;;;;;;;;;;5013929;28;20188;-43
2022/02/23 03:20:25;;;;;;;22.77;3.30;;;;;;;;;;5013876;28;20261;-44
2022/02/23 03:22:51;;;;;;;19.60;4.47;;;;;;;;;;5013888;28;20161;-43
2022/02/23 03:25:17;;;;;;;13.23;3.40;;;;;;;;;;5014511;28;20394;-43
2022/02/23 03:27:43;;;;;;;18.90;3.57;;;;;;;;;;5013806;28;20423;-43
2022/02/23 03:30:09;;;;;;;7.60;2.90;;;;;;;;;;5013515;28;20801;-43
2022/02/23 03:32:35;;;;;;;21.45;3.38;;;;;;;;;;5013724;28;20418;-44
2022/02/23 03:35:01;;;;;;;8.70;3.20;;;;;;;;;;5013782;28;20764;-44
2022/02/23 03:37:27;;;;;;;10.53;3.23;;;;;;;;;;5013584;28;20427;-44
2022/02/23 03:39:53;;;;;;;8.10;3.03;;;;;;;;;;5013337;28;20457;-44
2022/02/23 03:42:18;;;;;;;12.93;3.47;;;;;;;;;;5013536;28;20403;-45
2022/02/23 03:44:44;;;;;;;8.30;3.30;;;;;;;;;;5013405;28;20411;-43
2022/02/23 03:47:11;;;;;;;6.57;2.90;;;;;;;;;;5013238;28;20423;-43
2022/02/23 03:49:37;;;;;;;11.43;3.00;;;;;;;;;;5012571;28;20414;-43
2022/02/23 03:52:03;;;;;;;13.05;3.83;;;;;;;;;;5013064;28;20650;-43
2022/02/23 03:54:29;;;;;;;6.93;3.45;;;;;;;;;;5013419;28;20168;-43
2022/02/23 03:56:55;;;;;;;25.03;3.57;;;;;;;;;;5013126;28;20379;-44
2022/02/23 03:59:21;;;;;;;11.20;4.13;;;;;;;;;;5013114;28;20447;-43
2022/02/23 04:01:47;;;;;;;8.82;3.00;;;;;;;;;;5013122;28;20441;-43
2022/02/23 04:04:13;;;;;;;13.10;3.03;;;;;;;;;;5012900;28;20623;-43
2022/02/23 04:06:39;;;;;;;12.60;2.75;;;;;;;;;;5013264;28;20561;-43
2022/02/23 04:09:07;;;;;;;21.03;4.60;;;;;;;;;;5013269;28;20168;-44
2022/02/23 04:11:34;;;;;;;15.52;3.17;;;;;;;;;;5012988;28;20942;-44
2022/02/23 04:14:00;;;;;;;19.48;3.50;;;;;;;;;;5012941;28;20260;-44
2022/02/23 04:16:26;;;;;;;10.68;3.20;;;;;;;;;;5012890;28;20189;-44
2022/02/23 04:18:53;;;;;;;11.13;3.40;;;;;;;;;;5012705;28;20172;-46
2022/02/23 04:21:19;;;;;;;15.23;3.97;;;;;;;;;;5013118;28;20404;-43
2022/02/23 04:23:45;;;;;;;6.07;3.50;;;;;;;;;;5013445;28;20168;-44
2022/02/23 04:26:12;;;;;;;7.27;3.17;;;;;;;;;;5012854;28;20172;-44
2022/02/23 04:28:38;;;;;;;7.05;3.10;;;;;;;;;;5012983;28;20403;-44
2022/02/23 04:31:04;;;;;;;6.07;3.80;;;;;;;;;;5012923;28;20172;-44
2022/02/23 04:33:30;;;;;;;11.30;3.50;;;;;;;;;;5012890;28;20167;-43
2022/02/23 04:35:57;;;;;;;16.38;2.97;;;;;;;;;;5012985;28;20175;-43
2022/02/23 04:38:23;;;;;;;10.25;3.58;;;;;;;;;;5013118;28;20189;-43
2022/02/23 04:40:49;;;;;;;17.83;3.55;;;;;;;;;;5012109;28;20555;-43
2022/02/23 04:43:15;;;;;;;14.05;4.05;;;;;;;;;;5012399;28;20215;-43
2022/02/23 04:45:41;;;;;;;13.68;4.13;;;;;;;;;;5012413;28;20568;-43
2022/02/23 04:48:08;;;;;;;15.23;4.37;;;;;;;;;;5012329;28;20179;-43
2022/02/23 04:50:34;;;;;;;11.88;4.78;;;;;;;;;;5012113;28;20473;-43
2022/02/23 04:53:00;;;;;;;7.18;3.38;;;;;;;;;;5012189;28;20176;-43
2022/02/23 04:55:26;;;;;;;16.17;4.38;;;;;;;;;;5012150;28;20164;-44
2022/02/23 04:57:52;;;;;;;24.50;4.60;;;;;;;;;;5012072;28;20229;-44
2022/02/23 05:00:18;;;;;;;9.80;3.60;;;;;;;;;;5011780;28;20482;-45
2022/02/23 05:02:44;;;;;;;11.20;4.05;;;;;;;;;;5012320;28;20841;-43
2022/02/23 05:05:10;;;;;;;15.43;3.90;;;;;;;;;;5012074;28;20164;-43
2022/02/23 05:07:37;;;;;;;6.65;3.97;;;;;;;;;;5012084;28;20426;-45
2022/02/23 05:10:03;;;;;;;12.20;4.20;;;;;;;;;;5011607;28;20181;-45
2022/02/23 05:12:31;;;;;;;10.38;4.57;;;;;;;;;;5012138;28;20702;-43
2022/02/23 05:14:57;;;;;;;11.70;3.45;;;;;;;;;;5011620;28;20217;-44
2022/02/23 05:17:23;;;;;;;7.30;3.30;;;;;;;;;;5011210;28;20612;-43
2022/02/23 05:19:49;;;;;;;18.03;4.30;;;;;;;;;;5011621;28;20505;-44
2022/02/23 05:22:16;;;;;;;8.85;4.10;;;;;;;;;;5011722;28;20392;-43
2022/02/23 05:24:42;;;;;;;11.52;3.92;;;;;;;;;;5011720;28;20192;-43
2022/02/23 05:27:08;;;;;;;15.35;4.53;;;;;;;;;;5011613;28;20207;-44
2022/02/23 05:29:34;;;;;;;14.47;3.83;;;;;;;;;;5011369;28;20639;-43
2022/02/23 05:32:00;;;;;;;12.10;3.93;;;;;;;;;;5011557;28;20411;-43
2022/02/23 05:34:26;;;;;;;13.35;4.60;;;;;;;;;;5011690;28;20487;-42
2022/02/23 05:36:52;;;;;;;18.33;5.03;;;;;;;;;;5011562;28;20291;-43
2022/02/23 05:39:18;;;;;;;17.17;4.43;;;;;;;;;;5011093;28;20485;-43
2022/02/23 05:41:44;;;;;;;16.70;3.97;;;;;;;;;;5011433;28;20404;-43
2022/02/23 05:44:11;;;;;;;14.50;4.47;;;;;;;;;;5011424;28;20270;-43
2022/02/23 05:46:37;;;;;;;10.57;3.97;;;;;;;;;;5011498;28;20188;-42
2022/02/23 05:49:03;;;;;;;9.13;4.38;;;;;;;;;;5011139;28;20171;-43
2022/02/23 05:51:29;;;;;;;20.77;4.80;;;;;;;;;;5011439;28;20222;-43
2022/02/23 05:53:55;;;;;;;14.17;4.93;;;;;;;;;;5011274;28;20164;-42
2022/02/23 05:56:21;;;;;;;13.05;3.70;;;;;;;;;;5011341;28;20442;-43
2022/02/23 05:58:47;;;;;;;12.30;3.90;;;;;;;;;;5011329;28;20164;-43
2022/02/23 06:01:13;;;;;;;16.90;3.70;;;;;;;;;;5011107;28;20730;-43
2022/02/23 06:03:39;;;;;;;16.90;4.60;;;;;;;;;;5011398;28;20884;-43
2022/02/23 06:06:05;;;;;;;15.07;3.57;;;;;;;;;;5011860;28;20175;-44
2022/02/23 06:08:31;;;;;;;10.13;5.40;;;;;;;;;;5011397;28;20411;-43
2022/02/23 06:10:57;;;;;;;18.43;4.57;;;;;;;;;;5011110;28;20576;-42
2022/02/23 06:13:23;;;;;;;11.10;3.93;;;;;;;;;;5011162;28;20407;-43
2022/02/23 06:15:49;;;;;;;8.83;3.73;;;;;;;;;;5011185;28;20411;-43
2022/02/23 06:18:16;;;;;;;12.27;4.73;;;;;;;;;;5011061;28;20427;-43
2022/02/23 06:20:42;;;;;;;13.23;4.15;;;;;;;;;;5010779;28;20553;-43
2022/02/23 06:23:07;;;;;;;8.97;3.77;;;;;;;;;;5010885;28;20636;-43
2022/02/23 06:25:33;;;;;;;17.50;4.60;;;;;;;;;;5011036;28;20759;-44
2022/02/23 06:28:02;;;;;;;15.90;4.57;;;;;;;;;;5013674;28;20796;-44
2022/02/23 06:30:28;;;;;;;23.45;6.45;;;;;;;;;;5014716;28;20538;-44
2022/02/23 06:32:54;;;;;;;16.23;3.90;;;;;;;;;;5014817;28;20182;-44
2022/02/23 06:35:20;;;;;;;17.50;4.30;;;;;;;;;;5014777;28;20395;-44
2022/02/23 06:37:46;;;;;;;11.40;4.97;;;;;;;;;;5014994;28;20195;-42
2022/02/23 06:40:13;;;;;;;11.03;4.40;;;;;;;;;;5014383;28;20458;-43
2022/02/23 06:42:39;;;;;;;9.32;4.40;;;;;;;;;;5014605;28;20410;-43
2022/02/23 06:45:06;;;;;;;13.32;5.63;;;;;;;;;;5014723;28;20176;-42
2022/02/23 06:47:32;;;;;;;11.25;3.90;;;;;;;;;;5014539;28;20188;-43
2022/02/23 06:49:57;;;;;;;20.57;5.73;;;;;;;;;;5014258;28;20547;-44
2022/02/23 06:52:24;;;;;;;10.80;4.57;;;;;;;;;;5014496;28;20415;-43
2022/02/23 06:54:50;;;;;;;11.07;5.05;;;;;;;;;;5014541;28;20490;-42
2022/02/23 06:57:17;;;;;;;9.70;3.70;;;;;;;;;;5014457;28;20575;-44
2022/02/23 06:59:44;;;;;;;15.93;5.05;;;;;;;;;;5014920;28;20188;-43
2022/02/23 07:02:10;;;;;;;12.23;5.15;;;;;;;;;;5014401;28;20252;-43
2022/02/23 07:04:37;;;;;;;10.70;3.92;;;;;;;;;;5014363;28;20169;-42
2022/02/23 07:07:03;;;;;;;17.02;5.15;;;;;;;;;;5014218;28;20230;-43
2022/02/23 07:09:29;;;;;;;21.98;6.70;;;;;;;;;;5014129;28;20191;-44
2022/02/23 07:11:55;;;;;;;22.37;5.33;;;;;;;;;;5014140;28;20176;-43
2022/02/23 07:14:21;;;;;;;19.27;5.27;;;;;;;;;;5014554;28;20422;-43
2022/02/23 07:16:47;;;;;;;14.27;4.70;;;;;;;;;;5013988;28;20517;-43
2022/02/23 07:19:13;;;;;;;15.43;4.78;;;;;;;;;;5013611;28;20460;-43
2022/02/23 07:21:39;;;;;;;13.33;4.33;;;;;;;;;;5014121;28;20582;-43
2022/02/23 07:24:06;;;;;;;11.97;4.67;;;;;;;;;;5013928;28;20400;-44
2022/02/23 07:26:32;;;;;;;9.88;4.45;;;;;;;;;;5013720;28;20434;-43
2022/02/23 07:28:58;;;;;;;7.38;4.13;;;;;;;;;;5013696;28;20222;-43
2022/02/23 07:31:25;;;;;;;19.23;5.35;;;;;;;;;;5013952;28;20173;-43
2022/02/23 07:33:51;;;;;;;11.48;4.30;;;;;;;;;;5013871;28;20161;-42
2022/02/23 07:36:18;;;;;;;14.82;5.90;;;;;;;;;;5013925;28;20165;-43
2022/02/23 07:38:45;;;;;;;20.47;4.63;;;;;;;;;;5013063;28;20220;-46
2022/02/23 07:41:12;;;;;;;15.70;4.60;;;;;;;;;;5013514;28;20455;-43
2022/02/23 07:43:38;;;;;;;10.48;4.07;;;;;;;;;;5013723;28;20826;-43
2022/02/23 07:46:05;;;;;;;17.43;5.07;;;;;;;;;;5013585;28;20203;-43
2022/02/23 07:48:32;;;;;;;16.00;5.70;;;;;;;;;;5013467;28;20405;-45
2022/02/23 07:50:58;;;;;;;13.00;4.83;;;;;;;;;;5013326;28;20403;-43
2022/02/23 07:53:25;;;;;;;12.57;4.63;;;;;;;;;;5013339;28;20462;-43
2022/02/23 07:55:51;;;;;;;13.80;4.80;;;;;;;;;;5013238;28;20405;-43
2022/02/23 07:58:17;;;;;;;14.70;5.23;;;;;;;;;;5013135;28;21200;-43
2022/02/23 08:00:43;;;;;;;10.47;4.03;;;;;;;;;;5012885;28;20496;-43
2022/02/23 08:03:09;;;;;;;13.03;3.97;;;;;;;;;;5013326;28;20432;-43
2022/02/23 08:05:35;;;;;;;8.73;5.03;;;;;;;;;;5013087;28;20441;-43
2022/02/23 08:08:01;;;;;;;14.10;4.07;;;;;;;;;;5013170;28;20419;-43
2022/02/23 08:10:27;;;;;;;9.60;4.67;;;;;;;;;;5012595;28;20410;-43
2022/02/23 08:12:55;;;;;;;11.20;3.97;;;;;;;;;;5014287;28;20423;-44
2022/02/23 08:20:52;;;;;;;8.90;4.03;;;;;;;;;;5012611;28;20513;-43
2022/02/23 08:23:18;;;;;;;8.37;3.87;;;;;;;;;;5012731;28;20397;-43
2022/02/23 08:25:45;;;;;;;8.90;4.57;;;;;;;;;;5012840;28;20448;-43
2022/02/23 08:28:11;;;;;;;18.30;4.23;;;;;;;;;;5012657;28;20441;-43
2022/02/23 08:30:37;;;;;;;18.87;4.10;;;;;;;;;;5012471;28;20681;-44
2022/02/23 08:33:03;;;;;;;10.67;3.43;;;;;;;;;;5012410;28;20951;-44
2022/02/23 08:35:30;;;;;;;16.20;4.97;;;;;;;;;;5012607;28;20412;-43
2022/02/23 08:37:56;;;;;;;16.53;4.07;;;;;;;;;;5012638;28;20467;-43
2022/02/23 08:40:22;;;;;;;18.43;4.20;;;;;;;;;;5012307;28;20466;-44
2022/02/23 08:42:48;;;;;;;17.77;4.57;;;;;;;;;;5012254;28;20399;-43
2022/02/23 08:45:14;;;;;;;14.30;4.70;;;;;;;;;;5012324;28;20422;-44
2022/02/23 08:47:40;;;;;;;11.57;4.30;;;;;;;;;;5012215;28;20461;-43
2022/02/23 08:50:07;;;;;;;8.53;4.20;;;;;;;;;;5012169;28;20785;-43
2022/02/23 08:52:33;;;;;;;15.90;3.77;;;;;;;;;;5012403;28;20416;-43
2022/02/23 08:54:59;;;;;;;14.07;4.20;;;;;;;;;;5012449;28;20412;-44
2022/02/23 08:57:26;;;;;;;11.80;4.13;;;;;;;;;;5012236;28;20542;-45
2022/02/23 08:59:52;;;;;;;9.23;3.77;;;;;;;;;;5012133;28;20465;-43
2022/02/23 09:02:18;;;;;;;13.27;4.40;;;;;;;;;;5011984;28;20408;-44
2022/02/23 09:04:44;;;;;;;10.90;4.33;;;;;;;;;;5012161;28;20395;-44
2022/02/23 09:07:10;;;;;;;12.40;3.90;;;;;;;;;;5011864;28;20420;-43
2022/02/23 09:09:37;;;;;;;10.13;3.70;;;;;;;;;;5012051;28;20417;-43
2022/02/23 09:12:04;;;;;;;15.10;4.37;;;;;;;;;;5011939;28;20410;-44
2022/02/23 09:14:30;;;;;;;11.40;4.50;;;;;;;;;;5011928;28;20408;-43
2022/02/23 09:16:56;;;;;;;8.60;3.50;;;;;;;;;;5011764;28;20436;-43
2022/02/23 09:19:22;;;;;;;11.17;5.20;;;;;;;;;;5011590;28;20456;-44
2022/02/23 09:21:48;;;;;;;12.33;4.27;;;;;;;;;;5011738;28;20402;-44
2022/02/23 09:24:14;;;;;;;13.10;3.97;;;;;;;;;;5011672;28;20634;-44
2022/02/23 09:26:40;;;;;;;12.30;4.10;;;;;;;;;;5011603;28;20520;-44
2022/02/23 09:29:06;;;;;;;12.07;4.43;;;;;;;;;;5011316;28;20400;-46
2022/02/23 09:31:32;;;;;;;6.80;4.70;;;;;;;;;;5011554;28;20913;-44
2022/02/23 09:33:58;;;;;;;13.97;4.13;;;;;;;;;;5011520;28;20433;-46
2022/02/23 09:36:24;;;;;;;26.30;4.50;;;;;;;;;;5011381;28;20403;-47
2022/02/23 09:38:53;;;;;;;11.03;3.60;;;;;;;;;;5011644;28;20409;-44
2022/02/23 09:41:21;;;;;;;14.53;4.40;;;;;;;;;;5011377;28;20794;-43
2022/02/23 09:43:48;;;;;;;11.87;3.50;;;;;;;;;;5011258;28;20405;-46
2022/02/23 09:46:20;;;;;;;11.47;4.33;;;;;;;;;;5011289;28;20477;-46
2022/02/23 09:48:46;;;;;;;10.63;3.50;;;;;;;;;;5011433;28;20377;-44
2022/02/23 09:51:12;;;;;;;19.87;4.43;;;;;;;;;;5011065;28;20438;-45
2022/02/23 09:53:45;;;;;;;20.23;4.20;;;;;;;;;;5012393;28;20967;-44
2022/02/23 09:56:12;;;;;;;9.70;4.20;;;;;;;;;;5009621;28;20421;-45
2022/02/23 09:58:38;;;;;;;16.13;4.20;;;;;;;;;;5011548;28;20390;-45
2022/02/23 10:01:05;;;;;;;10.77;3.90;;;;;;;;;;5011356;28;20843;-45
2022/02/23 10:03:33;;;;;;;8.30;3.40;;;;;;;;;;5010891;28;20452;-45
2022/02/23 10:05:59;;;;;;;9.30;3.60;;;;;;;;;;5011472;28;20395;-45
2022/02/23 10:08:32;;;;;;;10.00;4.10;;;;;;;;;;5011560;28;20405;-44
2022/02/23 10:10:59;;;;;;;11.40;4.40;;;;;;;;;;5011584;28;20392;-45
2022/02/23 10:13:25;;;;;;;11.37;3.90;;;;;;;;;;5011476;28;20424;-45
2022/02/23 10:15:52;;;;;;;10.27;3.60;;;;;;;;;;5011953;28;20756;-45
2022/02/23 10:18:21;;;;;;;10.23;4.20;;;;;;;;;;5011739;28;20489;-45
2022/02/23 10:20:48;;;;;;;9.73;4.40;;;;;;;;;;5011508;28;20883;-45
2022/02/23 10:23:18;;;;;;;14.27;4.20;;;;;;;;;;5011697;28;20409;-45
2022/02/23 10:25:45;;;;;;;17.77;4.73;;;;;;;;;;5011380;28;20377;-45
2022/02/23 10:28:12;;;;;;;13.40;4.40;;;;;;;;;;5011812;28;20918;-45
2022/02/23 10:30:45;;;;;;;12.60;3.60;;;;;;;;;;5011230;28;20406;-45
2022/02/23 10:33:32;;;;;;;9.10;3.50;;;;;;;;;;5011267;28;20485;-45
2022/02/23 10:35:58;;;;;;;11.50;4.13;;;;;;;;;;5011104;28;20774;-45
2022/02/23 10:38:26;;;;;;;11.10;3.37;;;;;;;;;;5011273;28;20409;-45
2022/02/23 10:40:54;;;;;;;11.10;3.77;;;;;;;;;;5011062;28;20465;-45
2022/02/23 10:43:20;;;;;;;13.63;3.23;;;;;;;;;;5011333;28;20412;-45
2022/02/23 10:45:50;;;;;;;9.60;3.03;;;;;;;;;;5011257;28;20406;-45
2022/02/23 10:48:28;;;;;;;13.87;3.83;;;;;;;;;;5011137;28;20403;-45
2022/02/23 10:50:55;;;;;;;11.47;3.30;;;;;;;;;;5010507;28;20402;-45
2022/02/23 10:53:28;;;;;;;9.43;3.67;;;;;;;;;;5010719;28;20417;-45
2022/02/23 10:55:54;;;;;;;20.87;3.60;;;;;;;;;;5010592;28;20977;-45
2022/02/23 10:58:20;;;;;;;15.20;4.27;;;;;;;;;;5011068;28;20436;-45
2022/02/23 11:00:50;;;;;;;7.27;3.20;;;;;;;;;;5010488;28;20485;-45
2022/02/23 11:03:20;;;;;;;9.17;3.03;;;;;;;;;;5010464;28;20415;-45
2022/02/23 11:05:47;;;;;;;9.17;2.90;;;;;;;;;;5010447;28;20427;-45
2022/02/23 11:08:14;;;;;;;10.57;3.73;;;;;;;;;;5010489;28;20458;-45
2022/02/23 11:10:44;;;;;;;7.03;3.10;;;;;;;;;;5010019;28;20407;-45
2022/02/23 11:13:17;;;;;;;6.40;3.20;;;;;;;;;;5010529;28;20430;-45
2022/02/23 11:15:44;;;;;;;10.87;3.20;;;;;;;;;;5013677;28;20436;-45
2022/02/23 11:18:12;;;;;;;6.20;3.60;;;;;;;;;;5013850;28;20435;-45
2022/02/23 11:20:39;;;;;;;6.27;2.93;;;;;;;;;;5014001;28;20461;-45
2022/02/23 11:23:06;;;;;;;7.90;4.00;;;;;;;;;;5013310;28;20430;-45
2022/02/23 11:25:33;;;;;;;9.60;3.40;;;;;;;;;;5013720;28;20398;-45
2022/02/23 11:28:19;;;;;;;10.00;4.50;;;;;;;;;;5014125;28;20401;-45
2022/02/23 11:30:45;;;;;;;14.77;3.63;;;;;;;;;;5013933;28;20503;-45
2022/02/23 11:33:11;;;;;;;13.13;3.63;;;;;;;;;;5014220;28;20411;-45
2022/02/23 11:35:38;;;;;;;13.00;3.80;;;;;;;;;;5013640;28;20389;-45
2022/02/23 11:38:05;;;;;;;13.37;3.57;;;;;;;;;;5014184;28;20761;-45
2022/02/23 11:40:31;;;;;;;7.20;3.77;;;;;;;;;;5013299;28;20489;-45
2022/02/23 11:42:57;;;;;;;10.20;4.10;;;;;;;;;;5013552;28;20405;-45
2022/02/23 11:45:24;;;;;;;8.43;3.53;;;;;;;;;;5013474;28;20485;-45
2022/02/23 11:47:51;;;;;;;8.27;3.13;;;;;;;;;;5013393;28;20850;-45
2022/02/23 11:50:21;;;;;;;7.47;3.40;;;;;;;;;;5012861;28;20493;-45
2022/02/23 11:52:48;;;;;;;8.27;2.67;;;;;;;;;;5013284;28;20417;-46
2022/02/23 11:55:14;;;;;;;7.77;2.67;;;;;;;;;;5013290;28;20457;-45
2022/02/23 11:57:47;;;;;;;8.40;2.83;;;;;;;;;;5013380;28;20431;-45
2022/02/23 12:00:37;;;;;;;6.70;2.03;;;;;;;;;;5013203;28;20453;-45
2022/02/23 12:03:05;;;;;;;3.10;1.90;;;;;;;;;;5005376;28;20449;-45
2022/02/23 12:05:34;;;;;;;6.50;1.60;;;;;;;;;;5012978;28;20403;-45
2022/02/23 12:08:00;;;;;;;7.57;2.73;;;;;;;;;;5013061;28;20954;-45
2022/02/23 12:10:30;;;;;;;8.70;1.90;;;;;;;;;;5012925;28;20417;-45
2022/02/23 12:12:57;;;;;;;7.60;2.70;;;;;;;;;;5013355;28;20411;-45
2022/02/23 12:15:38;;;;;;;6.93;2.03;;;;;;;;;;5013684;28;20416;-45
2022/02/23 12:18:17;;;;;;;7.90;1.97;;;;;;;;;;5013676;28;20429;-45
2022/02/23 12:20:43;;;;;;;6.87;2.47;;;;;;;;;;5012707;28;20556;-46
2022/02/23 12:23:10;;;;;;;7.23;2.00;;;;;;;;;;5012893;28;20497;-45
2022/02/23 12:25:49;;;;;;;5.00;2.00;;;;;;;;;;5012292;28;20377;-45
2022/02/23 12:28:16;;;;;;;7.37;1.80;;;;;;;;;;5012633;28;20429;-45
2022/02/23 12:30:48;;;;;;;10.63;1.80;;;;;;;;;;5011696;28;20493;-45
2022/02/23 12:33:15;;;;;;;3.93;2.20;;;;;;;;;;5012385;28;20407;-46
2022/02/23 12:35:42;;;;;;;4.13;2.00;;;;;;;;;;5011966;28;20876;-46
2022/02/23 12:38:07;;;;;;;4.87;2.20;;;;;;;;;;5012234;28;20411;-45
2022/02/23 12:40:34;;;;;;;5.17;1.80;;;;;;;;;;5012847;28;20465;-45
2022/02/23 12:43:04;;;;;;;7.80;2.30;;;;;;;;;;5013576;28;20404;-45
2022/02/23 12:45:30;;;;;;;7.03;2.33;;;;;;;;;;5013045;28;20406;-45
2022/02/23 12:47:59;;;;;;;8.93;2.37;;;;;;;;;;5012755;28;20404;-45
2022/02/23 12:50:29;;;;;;;5.40;2.20;;;;;;;;;;5012704;28;20418;-45
2022/02/23 12:52:55;;;;;;;7.37;2.47;;;;;;;;;;5012336;28;20404;-45
2022/02/23 12:55:21;;;;;;;8.20;2.50;;;;;;;;;;5012796;28;20417;-45
2022/02/23 12:57:52;;;;;;;8.07;2.20;;;;;;;;;;5012367;28;20445;-45
2022/02/23 13:00:24;;;;;;;4.20;1.90;;;;;;;;;;5012884;28;20470;-46
2022/02/23 13:02:50;;;;;;;4.50;1.80;;;;;;;;;;5012029;28;20875;-45
2022/02/23 13:05:17;;;;;;;6.10;2.50;;;;;;;;;;5011719;28;20388;-46
2022/02/23 13:07:43;;;;;;;6.37;2.53;;;;;;;;;;5011991;28;20686;-46
2022/02/23 13:10:09;;;;;;;5.40;2.00;;;;;;;;;;5011999;28;20745;-46
2022/02/23 13:12:36;;;;;;;6.13;2.00;;;;;;;;;;5013483;28;20415;-46
2022/02/23 13:15:05;;;;;;;5.17;2.20;;;;;;;;;;5012227;28;20411;-46
2022/02/23 13:17:31;;;;;;;5.37;2.33;;;;;;;;;;5013873;28;20427;-46
2022/02/23 13:19:57;;;;;;;5.00;1.97;;;;;;;;;;5013415;28;20455;-46
2022/02/23 13:22:30;;;;;;;6.90;2.10;;;;;;;;;;5010864;28;20410;-46
2022/02/23 13:24:57;;;;;;;3.77;1.87;;;;;;;;;;5012073;28;20400;-46
2022/02/23 13:27:35;;;;;;;5.27;2.40;;;;;;;;;;5012701;28;20416;-46
2022/02/23 13:30:02;;;;;;;6.70;2.23;;;;;;;;;;5013260;28;20489;-46
2022/02/23 13:32:30;;;;;;;5.27;2.30;;;;;;;;;;5012306;28;20399;-46
2022/02/23 13:34:57;;;;;;;5.77;1.90;;;;;;;;;;5012083;28;20976;-46
2022/02/23 13:37:28;;;;;;;4.37;1.57;;;;;;;;;;5011998;28;20461;-46
2022/02/23 13:39:59;;;;;;;2.80;1.57;;;;;;;;;;5011288;28;20463;-46
2022/02/23 13:42:28;;;;;;;5.43;2.13;;;;;;;;;;5012242;28;20994;-46
2022/02/23 13:44:54;;;;;;;6.60;2.00;;;;;;;;;;5012330;28;20403;-46
2022/02/23 13:47:23;;;;;;;5.17;1.80;;;;;;;;;;5013078;28;20421;-45
2022/02/23 13:50:04;;;;;;;4.53;1.73;;;;;;;;;;5011189;28;20401;-45
2022/02/23 13:52:34;;;;;;;4.10;1.60;;;;;;;;;;5011430;28;20372;-45
2022/02/23 13:55:00;;;;;;;4.70;1.60;;;;;;;;;;5011682;28;20842;-49
2022/02/23 13:57:26;;;;;;;2.37;1.60;;;;;;;;;;5011466;28;20599;-44
2022/02/23 13:59:52;;;;;;;4.63;1.87;;;;;;;;;;5011137;28;20521;-45
2022/02/23 14:02:18;;;;;;;9.53;2.43;;;;;;;;;;5010005;28;20449;-44
2022/02/23 14:04:46;;;;;;;8.17;2.13;;;;;;;;;;5011104;28;20439;-44
2022/02/23 14:07:18;;;;;;;3.00;1.73;;;;;;;;;;5011342;28;20771;-45
2022/02/23 14:09:44;;;;;;;3.87;1.70;;;;;;;;;;5010966;28;20479;-44
2022/02/23 14:12:12;;;;;;;3.77;1.70;;;;;;;;;;5011004;28;20493;-45
2022/02/23 14:14:39;;;;;;;6.30;1.60;;;;;;;;;;5011323;28;20797;-45
2022/02/23 14:17:20;;;;;;;2.30;1.50;;;;;;;;;;5010873;28;20431;-46
2022/02/23 14:19:47;;;;;;;3.27;1.50;;;;;;;;;;5010788;28;20461;-45
2022/02/23 14:22:21;;;;;;;9.17;2.43;;;;;;;;;;5011221;28;20400;-47
2022/02/23 14:25:07;;;;;;;3.27;1.63;;;;;;;;;;5010951;28;20398;-47
2022/02/23 14:27:35;;;;;;;2.83;1.70;;;;;;;;;;5010823;28;20450;-47
2022/02/23 14:30:01;;;;;;;2.70;1.77;;;;;;;;;;5010546;28;20709;-47
2022/02/23 14:32:29;;;;;;;3.57;1.60;;;;;;;;;;5010842;28;20402;-45
2022/02/23 14:35:06;;;;;;;3.43;1.80;;;;;;;;;;5011138;28;20406;-45
2022/02/23 14:37:33;;;;;;;3.20;1.90;;;;;;;;;;5009575;28;20438;-47
2022/02/23 14:40:00;;;;;;;9.20;2.43;;;;;;;;;;5010401;28;20487;-46